sensor_id;sensor_type;location;lat;lon;timestamp;P1;durP1;ratioP1;P2;durP2;ratioP2
22160;SDS011;49035;48.812;11.762;2022-11-21T00:00:04;2.40;;;2.03;;
22160;SDS011;49035;48.812;11.762;2022-11-21T00:02:31;2.27;;;1.93;;
22160;SDS011;49035;48.812;11.762;2022-11-21T00:04:56;2.40;;;1.83;;
22160;SDS011;49035;48.812;11.762;2022-11-21T00:07:22;3.77;;;1.90;;
22160;SDS011;49035;48.812;11.762;2022-11-21T00:09:47;1.90;;;1.70;;
22160;SDS011;49035;48.812;11.762;2022-11-21T00:12:14;3.13;;;1.90;;
22160;SDS011;49035;48.812;11.762;2022-11-21T00:14:40;1.50;;;1.40;;
22160;SDS011;49035;48.812;11.762;2022-11-21T00:17:06;1.77;;;1.67;;
22160;SDS011;49035;48.812;11.762;2022-11-21T00:19:32;2.30;;;1.70;;
22160;SDS011;49035;48.812;11.762;2022-11-21T00:21:57;1.90;;;1.70;;
22160;SDS011;49035;48.812;11.762;2022-11-21T00:24:23;1.80;;;1.60;;
22160;SDS011;49035;48.812;11.762;2022-11-21T00:26:49;2.77;;;1.77;;
22160;SDS011;49035;48.812;11.762;2022-11-21T00:29:14;3.77;;;1.80;;
22160;SDS011;49035;48.812;11.762;2022-11-21T00:31:40;2.13;;;1.70;;
22160;SDS011;49035;48.812;11.762;2022-11-21T00:34:05;2.37;;;1.67;;
22160;SDS011;49035;48.812;11.762;2022-11-21T00:36:33;2.87;;;1.50;;
22160;SDS011;49035;48.812;11.762;2022-11-21T00:38:58;2.40;;;1.70;;
22160;SDS011;49035;48.812;11.762;2022-11-21T00:41:24;1.40;;;1.30;;
22160;SDS011;49035;48.812;11.762;2022-11-21T00:43:49;1.43;;;1.33;;
22160;SDS011;49035;48.812;11.762;2022-11-21T00:46:15;1.77;;;1.53;;
22160;SDS011;49035;48.812;11.762;2022-11-21T00:48:40;1.70;;;1.60;;
22160;SDS011;49035;48.812;11.762;2022-11-21T00:51:06;1.50;;;1.40;;
22160;SDS011;49035;48.812;11.762;2022-11-21T00:53:33;2.10;;;1.70;;
22160;SDS011;49035;48.812;11.762;2022-11-21T00:55:59;1.70;;;1.60;;
22160;SDS011;49035;48.812;11.762;2022-11-21T00:58:24;1.77;;;1.67;;
22160;SDS011;49035;48.812;11.762;2022-11-21T01:00:50;2.63;;;1.63;;
22160;SDS011;49035;48.812;11.762;2022-11-21T01:03:16;4.70;;;1.80;;
22160;SDS011;49035;48.812;11.762;2022-11-21T01:05:42;3.70;;;1.70;;
22160;SDS011;49035;48.812;11.762;2022-11-21T01:08:08;1.80;;;1.70;;
22160;SDS011;49035;48.812;11.762;2022-11-21T01:10:34;1.60;;;1.50;;
22160;SDS011;49035;48.812;11.762;2022-11-21T01:13:00;2.17;;;1.77;;
22160;SDS011;49035;48.812;11.762;2022-11-21T01:15:26;2.27;;;1.40;;
22160;SDS011;49035;48.812;11.762;2022-11-21T01:17:52;2.23;;;1.73;;
22160;SDS011;49035;48.812;11.762;2022-11-21T01:20:17;1.70;;;1.57;;
22160;SDS011;49035;48.812;11.762;2022-11-21T01:22:43;2.17;;;1.70;;
22160;SDS011;49035;48.812;11.762;2022-11-21T01:25:08;1.97;;;1.70;;
22160;SDS011;49035;48.812;11.762;2022-11-21T01:27:34;1.60;;;1.40;;
22160;SDS011;49035;48.812;11.762;2022-11-21T01:29:59;4.60;;;1.60;;
22160;SDS011;49035;48.812;11.762;2022-11-21T01:32:25;1.97;;;1.53;;
22160;SDS011;49035;48.812;11.762;2022-11-21T01:34:50;2.07;;;1.37;;
22160;SDS011;49035;48.812;11.762;2022-11-21T01:37:16;1.50;;;1.40;;
22160;SDS011;49035;48.812;11.762;2022-11-21T01:39:42;1.70;;;1.53;;
22160;SDS011;49035;48.812;11.762;2022-11-21T01:42:08;1.40;;;1.30;;
22160;SDS011;49035;48.812;11.762;2022-11-21T01:44:47;2.50;;;1.60;;
22160;SDS011;49035;48.812;11.762;2022-11-21T01:47:15;1.40;;;1.30;;
22160;SDS011;49035;48.812;11.762;2022-11-21T01:49:41;3.73;;;1.67;;
22160;SDS011;49035;48.812;11.762;2022-11-21T02:02:37;4.87;;;1.37;;
22160;SDS011;49035;48.812;11.762;2022-11-21T02:05:10;3.13;;;1.30;;
22160;SDS011;49035;48.812;11.762;2022-11-21T02:07:42;1.17;;;1.07;;
22160;SDS011;49035;48.812;11.762;2022-11-21T02:10:10;1.83;;;1.00;;
22160;SDS011;49035;48.812;11.762;2022-11-21T02:12:38;1.43;;;1.20;;
22160;SDS011;49035;48.812;11.762;2022-11-21T02:15:08;1.10;;;1.00;;
22160;SDS011;49035;48.812;11.762;2022-11-21T02:17:35;1.87;;;1.00;;
22160;SDS011;49035;48.812;11.762;2022-11-21T02:20:02;1.27;;;0.90;;
22160;SDS011;49035;48.812;11.762;2022-11-21T02:25:21;1.57;;;0.87;;
22160;SDS011;49035;48.812;11.762;2022-11-21T02:27:52;1.37;;;0.80;;
22160;SDS011;49035;48.812;11.762;2022-11-21T02:30:23;2.20;;;1.03;;
22160;SDS011;49035;48.812;11.762;2022-11-21T02:32:51;1.70;;;1.10;;
22160;SDS011;49035;48.812;11.762;2022-11-21T02:35:17;0.90;;;0.90;;
22160;SDS011;49035;48.812;11.762;2022-11-21T02:37:47;1.87;;;0.90;;
22160;SDS011;49035;48.812;11.762;2022-11-21T02:40:21;1.10;;;1.00;;
22160;SDS011;49035;48.812;11.762;2022-11-21T02:43:01;1.60;;;1.10;;
22160;SDS011;49035;48.812;11.762;2022-11-21T02:45:44;3.80;;;1.13;;
22160;SDS011;49035;48.812;11.762;2022-11-21T02:48:10;1.87;;;1.20;;
22160;SDS011;49035;48.812;11.762;2022-11-21T02:50:37;1.47;;;1.00;;
22160;SDS011;49035;48.812;11.762;2022-11-21T02:53:05;1.80;;;1.10;;
22160;SDS011;49035;48.812;11.762;2022-11-21T02:55:31;1.20;;;1.07;;
22160;SDS011;49035;48.812;11.762;2022-11-21T02:57:58;1.87;;;1.07;;
22160;SDS011;49035;48.812;11.762;2022-11-21T03:00:23;1.77;;;1.10;;
22160;SDS011;49035;48.812;11.762;2022-11-21T03:02:49;1.03;;;0.93;;
22160;SDS011;49035;48.812;11.762;2022-11-21T03:05:16;1.90;;;0.90;;
22160;SDS011;49035;48.812;11.762;2022-11-21T03:07:42;1.47;;;1.00;;
22160;SDS011;49035;48.812;11.762;2022-11-21T03:10:08;0.90;;;0.80;;
22160;SDS011;49035;48.812;11.762;2022-11-21T03:12:35;0.90;;;0.90;;
22160;SDS011;49035;48.812;11.762;2022-11-21T03:15:01;0.90;;;0.90;;
22160;SDS011;49035;48.812;11.762;2022-11-21T03:17:28;2.90;;;1.20;;
22160;SDS011;49035;48.812;11.762;2022-11-21T03:19:54;3.97;;;1.07;;
22160;SDS011;49035;48.812;11.762;2022-11-21T03:22:19;3.50;;;1.43;;
22160;SDS011;49035;48.812;11.762;2022-11-21T03:24:45;2.10;;;0.80;;
22160;SDS011;49035;48.812;11.762;2022-11-21T03:27:10;3.20;;;1.30;;
22160;SDS011;49035;48.812;11.762;2022-11-21T03:29:36;1.13;;;0.90;;
22160;SDS011;49035;48.812;11.762;2022-11-21T03:32:01;3.77;;;1.10;;
22160;SDS011;49035;48.812;11.762;2022-11-21T03:34:27;1.00;;;1.00;;
22160;SDS011;49035;48.812;11.762;2022-11-21T03:36:53;2.50;;;0.90;;
22160;SDS011;49035;48.812;11.762;2022-11-21T03:39:18;1.23;;;1.00;;
22160;SDS011;49035;48.812;11.762;2022-11-21T03:41:44;1.00;;;0.90;;
22160;SDS011;49035;48.812;11.762;2022-11-21T03:44:10;2.33;;;1.00;;
22160;SDS011;49035;48.812;11.762;2022-11-21T03:46:37;2.40;;;1.07;;
22160;SDS011;49035;48.812;11.762;2022-11-21T03:49:05;1.60;;;1.20;;
22160;SDS011;49035;48.812;11.762;2022-11-21T03:51:31;4.20;;;0.90;;
22160;SDS011;49035;48.812;11.762;2022-11-21T03:53:57;1.87;;;1.10;;
22160;SDS011;49035;48.812;11.762;2022-11-21T03:56:23;1.87;;;1.00;;
22160;SDS011;49035;48.812;11.762;2022-11-21T03:58:49;1.20;;;1.00;;
22160;SDS011;49035;48.812;11.762;2022-11-21T04:01:15;1.33;;;1.20;;
22160;SDS011;49035;48.812;11.762;2022-11-21T04:03:41;1.20;;;1.10;;
22160;SDS011;49035;48.812;11.762;2022-11-21T04:06:07;0.87;;;0.87;;
22160;SDS011;49035;48.812;11.762;2022-11-21T04:08:34;1.03;;;1.00;;
22160;SDS011;49035;48.812;11.762;2022-11-21T04:11:00;1.27;;;0.93;;
22160;SDS011;49035;48.812;11.762;2022-11-21T04:13:26;1.60;;;1.20;;
22160;SDS011;49035;48.812;11.762;2022-11-21T04:15:51;0.90;;;0.90;;
22160;SDS011;49035;48.812;11.762;2022-11-21T04:18:17;1.00;;;1.00;;
22160;SDS011;49035;48.812;11.762;2022-11-21T04:20:42;1.87;;;1.00;;
22160;SDS011;49035;48.812;11.762;2022-11-21T04:23:08;3.23;;;0.87;;
22160;SDS011;49035;48.812;11.762;2022-11-21T04:25:34;1.43;;;1.17;;
22160;SDS011;49035;48.812;11.762;2022-11-21T04:28:00;1.27;;;0.93;;
22160;SDS011;49035;48.812;11.762;2022-11-21T04:30:27;3.53;;;0.93;;
22160;SDS011;49035;48.812;11.762;2022-11-21T04:32:54;1.90;;;1.10;;
22160;SDS011;49035;48.812;11.762;2022-11-21T04:35:21;2.67;;;1.10;;
22160;SDS011;49035;48.812;11.762;2022-11-21T04:37:48;2.60;;;0.87;;
22160;SDS011;49035;48.812;11.762;2022-11-21T04:40:14;3.93;;;1.10;;
22160;SDS011;49035;48.812;11.762;2022-11-21T04:42:44;2.17;;;0.90;;
22160;SDS011;49035;48.812;11.762;2022-11-21T04:45:10;3.07;;;1.10;;
22160;SDS011;49035;48.812;11.762;2022-11-21T04:47:38;2.60;;;0.93;;
22160;SDS011;49035;48.812;11.762;2022-11-21T04:50:05;3.90;;;1.23;;
22160;SDS011;49035;48.812;11.762;2022-11-21T04:52:31;1.20;;;1.07;;
22160;SDS011;49035;48.812;11.762;2022-11-21T04:54:57;2.37;;;1.40;;
22160;SDS011;49035;48.812;11.762;2022-11-21T04:57:23;2.03;;;1.33;;
22160;SDS011;49035;48.812;11.762;2022-11-21T04:59:49;3.00;;;1.13;;
22160;SDS011;49035;48.812;11.762;2022-11-21T05:02:15;1.30;;;0.80;;
22160;SDS011;49035;48.812;11.762;2022-11-21T05:04:40;1.47;;;1.00;;
22160;SDS011;49035;48.812;11.762;2022-11-21T05:07:06;1.03;;;1.00;;
22160;SDS011;49035;48.812;11.762;2022-11-21T05:09:31;2.90;;;1.40;;
22160;SDS011;49035;48.812;11.762;2022-11-21T05:11:57;1.10;;;0.80;;
22160;SDS011;49035;48.812;11.762;2022-11-21T05:14:41;3.10;;;1.27;;
22160;SDS011;49035;48.812;11.762;2022-11-21T05:17:07;1.53;;;1.00;;
22160;SDS011;49035;48.812;11.762;2022-11-21T05:19:32;2.00;;;1.20;;
22160;SDS011;49035;48.812;11.762;2022-11-21T05:21:58;2.37;;;1.27;;
22160;SDS011;49035;48.812;11.762;2022-11-21T05:24:23;2.30;;;1.27;;
22160;SDS011;49035;48.812;11.762;2022-11-21T05:26:49;3.60;;;1.10;;
22160;SDS011;49035;48.812;11.762;2022-11-21T05:29:15;1.87;;;1.00;;
22160;SDS011;49035;48.812;11.762;2022-11-21T05:31:40;0.70;;;0.70;;
22160;SDS011;49035;48.812;11.762;2022-11-21T05:34:06;2.30;;;0.80;;
22160;SDS011;49035;48.812;11.762;2022-11-21T05:36:31;1.90;;;0.80;;
22160;SDS011;49035;48.812;11.762;2022-11-21T05:38:57;1.80;;;0.80;;
22160;SDS011;49035;48.812;11.762;2022-11-21T05:41:22;1.83;;;0.77;;
22160;SDS011;49035;48.812;11.762;2022-11-21T05:43:48;0.67;;;0.67;;
22160;SDS011;49035;48.812;11.762;2022-11-21T05:46:18;0.80;;;0.70;;
22160;SDS011;49035;48.812;11.762;2022-11-21T05:48:46;1.07;;;0.90;;
22160;SDS011;49035;48.812;11.762;2022-11-21T05:51:13;0.60;;;0.60;;
22160;SDS011;49035;48.812;11.762;2022-11-21T05:53:39;0.80;;;0.80;;
22160;SDS011;49035;48.812;11.762;2022-11-21T05:56:06;2.57;;;0.90;;
22160;SDS011;49035;48.812;11.762;2022-11-21T05:58:36;0.90;;;0.90;;
22160;SDS011;49035;48.812;11.762;2022-11-21T06:01:02;1.17;;;0.90;;
22160;SDS011;49035;48.812;11.762;2022-11-21T06:03:30;1.63;;;0.90;;
22160;SDS011;49035;48.812;11.762;2022-11-21T06:08:30;2.00;;;0.83;;
22160;SDS011;49035;48.812;11.762;2022-11-21T06:10:57;1.00;;;0.90;;
22160;SDS011;49035;48.812;11.762;2022-11-21T06:13:23;0.80;;;0.80;;
22160;SDS011;49035;48.812;11.762;2022-11-21T06:18:28;1.70;;;1.00;;
22160;SDS011;49035;48.812;11.762;2022-11-21T06:21:02;0.90;;;0.90;;
22160;SDS011;49035;48.812;11.762;2022-11-21T06:23:33;0.80;;;0.80;;
22160;SDS011;49035;48.812;11.762;2022-11-21T06:26:00;1.00;;;0.90;;
22160;SDS011;49035;48.812;11.762;2022-11-21T06:28:32;2.07;;;0.97;;
22160;SDS011;49035;48.812;11.762;2022-11-21T06:31:03;1.37;;;0.97;;
22160;SDS011;49035;48.812;11.762;2022-11-21T06:33:30;2.53;;;1.20;;
22160;SDS011;49035;48.812;11.762;2022-11-21T06:35:56;3.07;;;1.20;;
22160;SDS011;49035;48.812;11.762;2022-11-21T06:38:22;2.10;;;0.90;;
22160;SDS011;49035;48.812;11.762;2022-11-21T06:40:47;2.53;;;1.30;;
22160;SDS011;49035;48.812;11.762;2022-11-21T06:43:13;4.60;;;1.70;;
22160;SDS011;49035;48.812;11.762;2022-11-21T06:45:38;2.93;;;1.83;;
22160;SDS011;49035;48.812;11.762;2022-11-21T06:48:04;2.87;;;1.50;;
22160;SDS011;49035;48.812;11.762;2022-11-21T06:50:30;1.57;;;1.30;;
22160;SDS011;49035;48.812;11.762;2022-11-21T06:52:56;2.47;;;1.20;;
22160;SDS011;49035;48.812;11.762;2022-11-21T06:55:23;1.40;;;1.03;;
22160;SDS011;49035;48.812;11.762;2022-11-21T06:57:50;2.97;;;1.40;;
22160;SDS011;49035;48.812;11.762;2022-11-21T07:00:16;2.80;;;1.20;;
22160;SDS011;49035;48.812;11.762;2022-11-21T07:02:42;1.60;;;1.50;;
22160;SDS011;49035;48.812;11.762;2022-11-21T07:05:07;1.40;;;1.30;;
22160;SDS011;49035;48.812;11.762;2022-11-21T07:07:33;3.73;;;1.80;;
22160;SDS011;49035;48.812;11.762;2022-11-21T07:09:58;2.87;;;1.70;;
22160;SDS011;49035;48.812;11.762;2022-11-21T07:12:24;1.93;;;1.47;;
22160;SDS011;49035;48.812;11.762;2022-11-21T07:15:08;2.00;;;1.70;;
22160;SDS011;49035;48.812;11.762;2022-11-21T07:17:34;2.70;;;1.70;;
22160;SDS011;49035;48.812;11.762;2022-11-21T07:20:00;1.57;;;1.47;;
22160;SDS011;49035;48.812;11.762;2022-11-21T07:22:26;2.90;;;1.70;;
22160;SDS011;49035;48.812;11.762;2022-11-21T07:24:51;2.10;;;1.90;;
22160;SDS011;49035;48.812;11.762;2022-11-21T07:27:17;1.80;;;1.40;;
22160;SDS011;49035;48.812;11.762;2022-11-21T07:29:42;3.63;;;1.80;;
22160;SDS011;49035;48.812;11.762;2022-11-21T07:32:08;2.07;;;1.80;;
22160;SDS011;49035;48.812;11.762;2022-11-21T07:34:34;2.33;;;1.73;;
22160;SDS011;49035;48.812;11.762;2022-11-21T07:36:59;1.87;;;1.60;;
22160;SDS011;49035;48.812;11.762;2022-11-21T07:39:25;2.07;;;1.63;;
22160;SDS011;49035;48.812;11.762;2022-11-21T07:41:50;4.40;;;2.10;;
22160;SDS011;49035;48.812;11.762;2022-11-21T07:44:16;2.33;;;1.90;;
22160;SDS011;49035;48.812;11.762;2022-11-21T07:46:42;2.70;;;1.80;;
22160;SDS011;49035;48.812;11.762;2022-11-21T07:49:07;3.83;;;1.90;;
22160;SDS011;49035;48.812;11.762;2022-11-21T07:51:33;3.63;;;2.20;;
22160;SDS011;49035;48.812;11.762;2022-11-21T07:53:58;4.30;;;2.33;;
22160;SDS011;49035;48.812;11.762;2022-11-21T07:56:24;2.00;;;1.80;;
22160;SDS011;49035;48.812;11.762;2022-11-21T07:58:51;3.80;;;2.00;;
22160;SDS011;49035;48.812;11.762;2022-11-21T08:01:17;3.80;;;1.77;;
22160;SDS011;49035;48.812;11.762;2022-11-21T08:03:42;5.60;;;1.90;;
22160;SDS011;49035;48.812;11.762;2022-11-21T08:06:08;3.33;;;2.20;;
22160;SDS011;49035;48.812;11.762;2022-11-21T08:08:36;2.80;;;2.30;;
22160;SDS011;49035;48.812;11.762;2022-11-21T08:11:05;2.10;;;1.90;;
22160;SDS011;49035;48.812;11.762;2022-11-21T08:13:32;2.60;;;1.87;;
22160;SDS011;49035;48.812;11.762;2022-11-21T08:15:58;4.23;;;1.73;;
22160;SDS011;49035;48.812;11.762;2022-11-21T08:18:27;1.70;;;1.60;;
22160;SDS011;49035;48.812;11.762;2022-11-21T08:20:53;2.23;;;1.87;;
22160;SDS011;49035;48.812;11.762;2022-11-21T08:23:18;2.13;;;1.73;;
22160;SDS011;49035;48.812;11.762;2022-11-21T08:25:44;3.80;;;1.80;;
22160;SDS011;49035;48.812;11.762;2022-11-21T08:28:10;2.23;;;2.03;;
22160;SDS011;49035;48.812;11.762;2022-11-21T08:30:37;2.40;;;2.10;;
22160;SDS011;49035;48.812;11.762;2022-11-21T08:33:03;3.40;;;1.57;;
22160;SDS011;49035;48.812;11.762;2022-11-21T08:35:29;2.53;;;1.97;;
22160;SDS011;49035;48.812;11.762;2022-11-21T08:37:55;1.83;;;1.70;;
22160;SDS011;49035;48.812;11.762;2022-11-21T08:40:25;3.40;;;2.03;;
22160;SDS011;49035;48.812;11.762;2022-11-21T08:43:00;5.20;;;2.40;;
22160;SDS011;49035;48.812;11.762;2022-11-21T08:45:27;2.83;;;2.20;;
22160;SDS011;49035;48.812;11.762;2022-11-21T08:47:53;3.80;;;2.70;;
22160;SDS011;49035;48.812;11.762;2022-11-21T08:50:19;4.70;;;2.50;;
22160;SDS011;49035;48.812;11.762;2022-11-21T08:52:46;4.37;;;2.40;;
22160;SDS011;49035;48.812;11.762;2022-11-21T08:55:12;3.03;;;2.10;;
22160;SDS011;49035;48.812;11.762;2022-11-21T08:57:39;2.50;;;1.97;;
22160;SDS011;49035;48.812;11.762;2022-11-21T09:00:05;2.17;;;1.97;;
22160;SDS011;49035;48.812;11.762;2022-11-21T09:02:36;2.80;;;1.80;;
22160;SDS011;49035;48.812;11.762;2022-11-21T09:05:02;2.13;;;1.93;;
22160;SDS011;49035;48.812;11.762;2022-11-21T09:07:29;2.13;;;1.67;;
22160;SDS011;49035;48.812;11.762;2022-11-21T09:09:54;2.00;;;1.80;;
22160;SDS011;49035;48.812;11.762;2022-11-21T09:12:23;3.73;;;2.07;;
22160;SDS011;49035;48.812;11.762;2022-11-21T09:14:48;1.73;;;1.63;;
22160;SDS011;49035;48.812;11.762;2022-11-21T09:17:32;2.83;;;1.87;;
22160;SDS011;49035;48.812;11.762;2022-11-21T09:20:16;4.17;;;2.93;;
22160;SDS011;49035;48.812;11.762;2022-11-21T09:22:42;25.97;;;13.33;;
22160;SDS011;49035;48.812;11.762;2022-11-21T09:25:08;12.40;;;7.87;;
22160;SDS011;49035;48.812;11.762;2022-11-21T09:27:33;13.40;;;7.97;;
22160;SDS011;49035;48.812;11.762;2022-11-21T09:29:59;7.13;;;5.13;;
22160;SDS011;49035;48.812;11.762;2022-11-21T09:32:24;11.77;;;7.03;;
22160;SDS011;49035;48.812;11.762;2022-11-21T09:34:50;6.90;;;3.87;;
22160;SDS011;49035;48.812;11.762;2022-11-21T09:37:15;25.37;;;12.50;;
22160;SDS011;49035;48.812;11.762;2022-11-21T09:39:41;4.70;;;3.40;;
22160;SDS011;49035;48.812;11.762;2022-11-21T09:45:09;4.20;;;2.60;;
22160;SDS011;49035;48.812;11.762;2022-11-21T09:47:47;3.10;;;2.00;;
22160;SDS011;49035;48.812;11.762;2022-11-21T09:50:18;1.97;;;1.63;;
22160;SDS011;49035;48.812;11.762;2022-11-21T09:52:55;3.00;;;1.90;;
22160;SDS011;49035;48.812;11.762;2022-11-21T09:58:15;3.30;;;1.80;;
22160;SDS011;49035;48.812;11.762;2022-11-21T10:01:01;4.80;;;2.03;;
22160;SDS011;49035;48.812;11.762;2022-11-21T10:03:31;2.30;;;1.73;;
22160;SDS011;49035;48.812;11.762;2022-11-21T10:06:27;2.73;;;1.77;;
22160;SDS011;49035;48.812;11.762;2022-11-21T10:14:37;3.33;;;1.92;;
22160;SDS011;49035;48.812;11.762;2022-11-21T10:25:48;4.80;;;1.53;;
22160;SDS011;49035;48.812;11.762;2022-11-21T10:28:24;1.90;;;1.43;;
22160;SDS011;49035;48.812;11.762;2022-11-21T10:31:02;2.90;;;1.40;;
22160;SDS011;49035;48.812;11.762;2022-11-21T10:33:32;4.45;;;1.40;;
22160;SDS011;49035;48.812;11.762;2022-11-21T10:36:15;3.90;;;1.60;;
22160;SDS011;49035;48.812;11.762;2022-11-21T10:38:49;3.87;;;1.40;;
22160;SDS011;49035;48.812;11.762;2022-11-21T10:41:39;3.37;;;1.30;;
22160;SDS011;49035;48.812;11.762;2022-11-21T10:46:59;4.45;;;1.30;;
22160;SDS011;49035;48.812;11.762;2022-11-21T10:49:27;2.75;;;1.45;;
22160;SDS011;49035;48.812;11.762;2022-11-21T10:51:59;3.95;;;1.40;;
22160;SDS011;49035;48.812;11.762;2022-11-21T10:57:27;4.20;;;1.40;;
22160;SDS011;49035;48.812;11.762;2022-11-21T10:59:58;4.72;;;1.65;;
22160;SDS011;49035;48.812;11.762;2022-11-21T11:02:59;4.23;;;1.70;;
22160;SDS011;49035;48.812;11.762;2022-11-21T11:05:35;3.07;;;1.50;;
22160;SDS011;49035;48.812;11.762;2022-11-21T11:10:38;5.85;;;1.60;;
22160;SDS011;49035;48.812;11.762;2022-11-21T11:13:11;3.38;;;1.50;;
22160;SDS011;49035;48.812;11.762;2022-11-21T11:18:36;3.83;;;1.30;;
22160;SDS011;49035;48.812;11.762;2022-11-21T11:21:10;5.88;;;1.50;;
22160;SDS011;49035;48.812;11.762;2022-11-21T11:23:41;2.95;;;1.20;;
22160;SDS011;49035;48.812;11.762;2022-11-21T11:27:08;1.80;;;1.02;;
22160;SDS011;49035;48.812;11.762;2022-11-21T11:34:14;1.85;;;1.15;;
22160;SDS011;49035;48.812;11.762;2022-11-21T11:36:47;2.22;;;1.15;;
22160;SDS011;49035;48.812;11.762;2022-11-21T11:39:33;3.97;;;1.10;;
22160;SDS011;49035;48.812;11.762;2022-11-21T11:45:15;3.83;;;1.20;;
22160;SDS011;49035;48.812;11.762;2022-11-21T11:48:08;2.50;;;0.90;;
22160;SDS011;49035;48.812;11.762;2022-11-21T11:50:52;2.10;;;1.20;;
22160;SDS011;49035;48.812;11.762;2022-11-21T11:53:36;2.92;;;1.45;;
22160;SDS011;49035;48.812;11.762;2022-11-21T11:56:12;1.35;;;1.08;;
22160;SDS011;49035;48.812;11.762;2022-11-21T11:58:43;2.55;;;1.23;;
22160;SDS011;49035;48.812;11.762;2022-11-21T12:04:04;2.13;;;1.00;;
22160;SDS011;49035;48.812;11.762;2022-11-21T12:12:09;3.03;;;1.40;;
22160;SDS011;49035;48.812;11.762;2022-11-21T12:17:39;1.45;;;1.10;;
22160;SDS011;49035;48.812;11.762;2022-11-21T12:20:11;3.53;;;1.40;;
22160;SDS011;49035;48.812;11.762;2022-11-21T12:22:50;2.92;;;0.90;;
22160;SDS011;49035;48.812;11.762;2022-11-21T12:25:18;3.55;;;0.90;;
22160;SDS011;49035;48.812;11.762;2022-11-21T12:27:50;2.70;;;1.00;;
22160;SDS011;49035;48.812;11.762;2022-11-21T12:33:23;3.55;;;1.23;;
22160;SDS011;49035;48.812;11.762;2022-11-21T12:38:33;3.67;;;1.00;;
22160;SDS011;49035;48.812;11.762;2022-11-21T12:53:51;2.55;;;0.82;;
22160;SDS011;49035;48.812;11.762;2022-11-21T12:56:48;1.80;;;0.95;;
22160;SDS011;49035;48.812;11.762;2022-11-21T12:59:18;4.45;;;1.08;;
22160;SDS011;49035;48.812;11.762;2022-11-21T13:01:50;1.27;;;1.05;;
22160;SDS011;49035;48.812;11.762;2022-11-21T13:04:22;2.05;;;1.13;;
22160;SDS011;49035;48.812;11.762;2022-11-21T13:06:52;3.17;;;1.10;;
22160;SDS011;49035;48.812;11.762;2022-11-21T13:09:21;1.73;;;1.00;;
22160;SDS011;49035;48.812;11.762;2022-11-21T13:14:30;5.85;;;2.10;;
22160;SDS011;49035;48.812;11.762;2022-11-21T13:17:25;4.38;;;1.60;;
22160;SDS011;49035;48.812;11.762;2022-11-21T13:22:55;4.43;;;1.40;;
22160;SDS011;49035;48.812;11.762;2022-11-21T13:30:51;2.35;;;0.90;;
22160;SDS011;49035;48.812;11.762;2022-11-21T13:36:44;1.60;;;1.10;;
22160;SDS011;49035;48.812;11.762;2022-11-21T13:47:00;2.20;;;1.03;;
22160;SDS011;49035;48.812;11.762;2022-11-21T14:06:31;3.23;;;1.10;;
22160;SDS011;49035;48.812;11.762;2022-11-21T14:11:59;3.43;;;1.20;;
22160;SDS011;49035;48.812;11.762;2022-11-21T14:20:29;3.23;;;2.70;;
22160;SDS011;49035;48.812;11.762;2022-11-21T14:28:07;2.43;;;1.50;;
22160;SDS011;49035;48.812;11.762;2022-11-21T14:30:36;3.90;;;2.10;;
22160;SDS011;49035;48.812;11.762;2022-11-21T14:33:22;3.28;;;1.77;;
22160;SDS011;49035;48.812;11.762;2022-11-21T14:35:49;2.78;;;1.52;;
22160;SDS011;49035;48.812;11.762;2022-11-21T14:38:18;5.03;;;1.70;;
22160;SDS011;49035;48.812;11.762;2022-11-21T14:40:45;1.67;;;1.37;;
22160;SDS011;49035;48.812;11.762;2022-11-21T14:46:15;4.20;;;2.93;;
22160;SDS011;49035;48.812;11.762;2022-11-21T14:48:45;1.40;;;1.25;;
22160;SDS011;49035;48.812;11.762;2022-11-21T14:51:13;3.90;;;1.50;;
22160;SDS011;49035;48.812;11.762;2022-11-21T14:53:41;3.83;;;1.50;;
22160;SDS011;49035;48.812;11.762;2022-11-21T14:58:55;2.50;;;1.60;;
22160;SDS011;49035;48.812;11.762;2022-11-21T15:01:30;3.80;;;1.30;;
22160;SDS011;49035;48.812;11.762;2022-11-21T15:04:00;2.60;;;1.50;;
22160;SDS011;49035;48.812;11.762;2022-11-21T15:06:30;3.90;;;2.10;;
22160;SDS011;49035;48.812;11.762;2022-11-21T15:09:03;3.20;;;1.97;;
22160;SDS011;49035;48.812;11.762;2022-11-21T15:11:37;3.17;;;1.73;;
22160;SDS011;49035;48.812;11.762;2022-11-21T15:17:02;3.67;;;1.77;;
22160;SDS011;49035;48.812;11.762;2022-11-21T15:19:31;4.07;;;2.13;;
22160;SDS011;49035;48.812;11.762;2022-11-21T15:21:59;6.50;;;2.83;;
22160;SDS011;49035;48.812;11.762;2022-11-21T15:24:28;9.20;;;2.17;;
22160;SDS011;49035;48.812;11.762;2022-11-21T15:26:54;5.60;;;2.10;;
22160;SDS011;49035;48.812;11.762;2022-11-21T15:29:20;5.57;;;2.87;;
22160;SDS011;49035;48.812;11.762;2022-11-21T15:34:34;2.40;;;1.90;;
22160;SDS011;49035;48.812;11.762;2022-11-21T15:37:01;6.70;;;2.70;;
22160;SDS011;49035;48.812;11.762;2022-11-21T15:39:29;5.90;;;2.80;;
22160;SDS011;49035;48.812;11.762;2022-11-21T15:41:55;4.20;;;2.50;;
22160;SDS011;49035;48.812;11.762;2022-11-21T15:44:56;8.07;;;2.03;;
22160;SDS011;49035;48.812;11.762;2022-11-21T15:47:45;3.67;;;2.27;;
22160;SDS011;49035;48.812;11.762;2022-11-21T15:50:10;4.00;;;1.97;;
22160;SDS011;49035;48.812;11.762;2022-11-21T15:52:46;4.70;;;2.73;;
22160;SDS011;49035;48.812;11.762;2022-11-21T15:55:17;5.43;;;2.90;;
22160;SDS011;49035;48.812;11.762;2022-11-21T15:57:49;5.87;;;2.10;;
22160;SDS011;49035;48.812;11.762;2022-11-21T16:00:15;4.43;;;2.27;;
22160;SDS011;49035;48.812;11.762;2022-11-21T16:02:41;8.00;;;2.77;;
22160;SDS011;49035;48.812;11.762;2022-11-21T16:05:11;13.70;;;7.30;;
22160;SDS011;49035;48.812;11.762;2022-11-21T16:07:38;8.57;;;5.57;;
22160;SDS011;49035;48.812;11.762;2022-11-21T16:10:04;6.07;;;3.70;;
22160;SDS011;49035;48.812;11.762;2022-11-21T16:12:30;7.93;;;5.97;;
22160;SDS011;49035;48.812;11.762;2022-11-21T16:14:56;8.70;;;4.10;;
22160;SDS011;49035;48.812;11.762;2022-11-21T16:17:22;8.50;;;3.40;;
22160;SDS011;49035;48.812;11.762;2022-11-21T16:19:47;3.73;;;2.13;;
22160;SDS011;49035;48.812;11.762;2022-11-21T16:22:13;5.97;;;2.10;;
22160;SDS011;49035;48.812;11.762;2022-11-21T16:24:40;3.20;;;2.20;;
22160;SDS011;49035;48.812;11.762;2022-11-21T16:27:06;4.27;;;2.20;;
22160;SDS011;49035;48.812;11.762;2022-11-21T16:29:32;9.10;;;4.00;;
22160;SDS011;49035;48.812;11.762;2022-11-21T16:31:57;9.47;;;3.70;;
22160;SDS011;49035;48.812;11.762;2022-11-21T16:34:24;6.17;;;3.90;;
22160;SDS011;49035;48.812;11.762;2022-11-21T16:36:51;8.23;;;3.27;;
22160;SDS011;49035;48.812;11.762;2022-11-21T16:39:17;7.50;;;2.67;;
22160;SDS011;49035;48.812;11.762;2022-11-21T16:41:42;7.70;;;2.20;;
22160;SDS011;49035;48.812;11.762;2022-11-21T16:44:12;8.17;;;2.50;;
22160;SDS011;49035;48.812;11.762;2022-11-21T16:46:43;6.73;;;2.80;;
22160;SDS011;49035;48.812;11.762;2022-11-21T16:49:11;9.73;;;2.80;;
22160;SDS011;49035;48.812;11.762;2022-11-21T16:51:36;5.30;;;3.00;;
22160;SDS011;49035;48.812;11.762;2022-11-21T16:54:02;4.10;;;2.67;;
22160;SDS011;49035;48.812;11.762;2022-11-21T16:56:28;7.13;;;3.57;;
22160;SDS011;49035;48.812;11.762;2022-11-21T16:58:54;6.03;;;3.50;;
22160;SDS011;49035;48.812;11.762;2022-11-21T17:01:21;6.40;;;4.20;;
22160;SDS011;49035;48.812;11.762;2022-11-21T17:03:48;9.00;;;4.73;;
22160;SDS011;49035;48.812;11.762;2022-11-21T17:06:16;14.40;;;6.03;;
22160;SDS011;49035;48.812;11.762;2022-11-21T17:08:43;16.00;;;6.57;;
22160;SDS011;49035;48.812;11.762;2022-11-21T17:11:13;8.87;;;4.73;;
22160;SDS011;49035;48.812;11.762;2022-11-21T17:13:41;17.67;;;6.53;;